sensor_id;sensor_type;location;lat;lon;timestamp;P1;durP1;ratioP1;P2;durP2;ratioP2
16159;SDS011;8185;57.818;15.224;2023-02-28T00:00:33;6.80;;;5.10;;
16159;SDS011;8185;57.818;15.224;2023-02-28T00:03:01;6.30;;;5.70;;
16159;SDS011;8185;57.818;15.224;2023-02-28T00:05:28;8.57;;;6.33;;
16159;SDS011;8185;57.818;15.224;2023-02-28T00:07:55;6.77;;;5.87;;
16159;SDS011;8185;57.818;15.224;2023-02-28T00:10:25;6.53;;;4.33;;
16159;SDS011;8185;57.818;15.224;2023-02-28T00:12:54;5.63;;;4.20;;
16159;SDS011;8185;57.818;15.224;2023-02-28T00:15:23;7.73;;;6.73;;
16159;SDS011;8185;57.818;15.224;2023-02-28T00:17:51;7.93;;;6.00;;
16159;SDS011;8185;57.818;15.224;2023-02-28T00:20:18;5.13;;;4.30;;
16159;SDS011;8185;57.818;15.224;2023-02-28T00:22:46;9.90;;;8.23;;
16159;SDS011;8185;57.818;15.224;2023-02-28T00:25:16;3.80;;;3.40;;
16159;SDS011;8185;57.818;15.224;2023-02-28T00:27:46;2.43;;;2.23;;
16159;SDS011;8185;57.818;15.224;2023-02-28T00:30:14;4.10;;;3.70;;
16159;SDS011;8185;57.818;15.224;2023-02-28T00:32:43;5.30;;;4.80;;
16159;SDS011;8185;57.818;15.224;2023-02-28T00:35:10;6.07;;;5.33;;
16159;SDS011;8185;57.818;15.224;2023-02-28T00:37:38;3.57;;;2.90;;
16159;SDS011;8185;57.818;15.224;2023-02-28T00:40:06;1.50;;;1.40;;
16159;SDS011;8185;57.818;15.224;2023-02-28T00:42:34;1.70;;;1.40;;
16159;SDS011;8185;57.818;15.224;2023-02-28T00:45:03;1.53;;;1.27;;
16159;SDS011;8185;57.818;15.224;2023-02-28T00:47:31;1.80;;;1.10;;
16159;SDS011;8185;57.818;15.224;2023-02-28T00:49:58;2.23;;;1.30;;
16159;SDS011;8185;57.818;15.224;2023-02-28T00:52:26;3.33;;;1.30;;
16159;SDS011;8185;57.818;15.224;2023-02-28T00:54:53;1.53;;;1.30;;
16159;SDS011;8185;57.818;15.224;2023-02-28T00:57:20;1.10;;;1.00;;
16159;SDS011;8185;57.818;15.224;2023-02-28T00:59:47;1.33;;;1.23;;
16159;SDS011;8185;57.818;15.224;2023-02-28T01:02:16;1.77;;;1.47;;
16159;SDS011;8185;57.818;15.224;2023-02-28T01:04:45;2.13;;;1.20;;
16159;SDS011;8185;57.818;15.224;2023-02-28T01:07:13;2.07;;;1.53;;
16159;SDS011;8185;57.818;15.224;2023-02-28T01:09:40;1.33;;;1.23;;
16159;SDS011;8185;57.818;15.224;2023-02-28T01:12:08;2.07;;;1.20;;
16159;SDS011;8185;57.818;15.224;2023-02-28T01:14:36;2.07;;;1.30;;
16159;SDS011;8185;57.818;15.224;2023-02-28T01:17:03;1.93;;;1.73;;
16159;SDS011;8185;57.818;15.224;2023-02-28T01:19:31;2.33;;;2.13;;
16159;SDS011;8185;57.818;15.224;2023-02-28T01:22:00;2.30;;;1.90;;
16159;SDS011;8185;57.818;15.224;2023-02-28T01:24:28;1.40;;;1.10;;
16159;SDS011;8185;57.818;15.224;2023-02-28T01:26:55;1.33;;;1.23;;
16159;SDS011;8185;57.818;15.224;2023-02-28T01:29:23;1.00;;;1.00;;
16159;SDS011;8185;57.818;15.224;2023-02-28T01:31:50;2.70;;;1.10;;
16159;SDS011;8185;57.818;15.224;2023-02-28T01:34:17;1.13;;;1.03;;
16159;SDS011;8185;57.818;15.224;2023-02-28T01:36:46;3.37;;;1.10;;
16159;SDS011;8185;57.818;15.224;2023-02-28T01:39:13;1.37;;;1.10;;
16159;SDS011;8185;57.818;15.224;2023-02-28T01:41:40;1.87;;;1.17;;
16159;SDS011;8185;57.818;15.224;2023-02-28T01:47:08;2.20;;;1.20;;
16159;SDS011;8185;57.818;15.224;2023-02-28T01:49:35;1.83;;;1.33;;
16159;SDS011;8185;57.818;15.224;2023-02-28T01:52:05;1.40;;;1.20;;
16159;SDS011;8185;57.818;15.224;2023-02-28T01:54:33;1.30;;;1.20;;
16159;SDS011;8185;57.818;15.224;2023-02-28T01:57:01;2.87;;;1.10;;
16159;SDS011;8185;57.818;15.224;2023-02-28T01:59:33;1.33;;;1.00;;
16159;SDS011;8185;57.818;15.224;2023-02-28T02:02:06;2.00;;;1.20;;
16159;SDS011;8185;57.818;15.224;2023-02-28T02:04:35;3.07;;;1.30;;
16159;SDS011;8185;57.818;15.224;2023-02-28T02:07:09;2.60;;;1.37;;
16159;SDS011;8185;57.818;15.224;2023-02-28T02:09:39;2.10;;;1.17;;
16159;SDS011;8185;57.818;15.224;2023-02-28T02:12:08;2.13;;;1.37;;
16159;SDS011;8185;57.818;15.224;2023-02-28T02:14:52;1.30;;;1.20;;
16159;SDS011;8185;57.818;15.224;2023-02-28T02:17:29;1.90;;;1.20;;
16159;SDS011;8185;57.818;15.224;2023-02-28T02:23:12;1.47;;;1.17;;
16159;SDS011;8185;57.818;15.224;2023-02-28T02:26:03;1.30;;;1.20;;
16159;SDS011;8185;57.818;15.224;2023-02-28T02:28:54;1.70;;;1.13;;
16159;SDS011;8185;57.818;15.224;2023-02-28T02:32:08;3.77;;;1.50;;
16159;SDS011;8185;57.818;15.224;2023-02-28T02:35:00;1.50;;;1.20;;
16159;SDS011;8185;57.818;15.224;2023-02-28T02:37:40;2.23;;;1.70;;
16159;SDS011;8185;57.818;15.224;2023-02-28T02:40:14;2.10;;;1.40;;
16159;SDS011;8185;57.818;15.224;2023-02-28T02:42:47;1.20;;;1.10;;
16159;SDS011;8185;57.818;15.224;2023-02-28T02:45:20;1.57;;;1.40;;
16159;SDS011;8185;57.818;15.224;2023-02-28T02:47:50;2.67;;;2.03;;
16159;SDS011;8185;57.818;15.224;2023-02-28T02:50:22;5.63;;;2.63;;
16159;SDS011;8185;57.818;15.224;2023-02-28T02:52:55;2.53;;;2.33;;
16159;SDS011;8185;57.818;15.224;2023-02-28T02:55:25;2.47;;;2.27;;
16159;SDS011;8185;57.818;15.224;2023-02-28T02:57:53;2.37;;;2.17;;
16159;SDS011;8185;57.818;15.224;2023-02-28T03:00:25;1.30;;;1.17;;
16159;SDS011;8185;57.818;15.224;2023-02-28T03:02:55;1.37;;;1.20;;
16159;SDS011;8185;57.818;15.224;2023-02-28T03:05:26;1.30;;;0.93;;
16159;SDS011;8185;57.818;15.224;2023-02-28T03:07:58;1.53;;;1.20;;
16159;SDS011;8185;57.818;15.224;2023-02-28T03:10:28;2.10;;;1.40;;
16159;SDS011;8185;57.818;15.224;2023-02-28T03:13:00;1.67;;;1.10;;
16159;SDS011;8185;57.818;15.224;2023-02-28T03:15:40;1.30;;;1.10;;
16159;SDS011;8185;57.818;15.224;2023-02-28T03:18:19;1.20;;;1.10;;
16159;SDS011;8185;57.818;15.224;2023-02-28T03:20:58;1.50;;;1.40;;
16159;SDS011;8185;57.818;15.224;2023-02-28T03:23:35;1.37;;;1.27;;
16159;SDS011;8185;57.818;15.224;2023-02-28T03:26:11;1.40;;;1.30;;
16159;SDS011;8185;57.818;15.224;2023-02-28T03:28:49;3.53;;;2.30;;
16159;SDS011;8185;57.818;15.224;2023-02-28T03:31:23;2.50;;;1.30;;
16159;SDS011;8185;57.818;15.224;2023-02-28T03:33:55;2.30;;;1.20;;
16159;SDS011;8185;57.818;15.224;2023-02-28T03:36:28;1.53;;;1.43;;
16159;SDS011;8185;57.818;15.224;2023-02-28T03:38:59;3.47;;;2.77;;
16159;SDS011;8185;57.818;15.224;2023-02-28T03:41:31;5.40;;;4.80;;
16159;SDS011;8185;57.818;15.224;2023-02-28T03:44:05;1.83;;;1.63;;
16159;SDS011;8185;57.818;15.224;2023-02-28T03:46:41;2.17;;;1.70;;
16159;SDS011;8185;57.818;15.224;2023-02-28T03:49:13;2.93;;;2.63;;
16159;SDS011;8185;57.818;15.224;2023-02-28T03:51:44;3.33;;;2.97;;
16159;SDS011;8185;57.818;15.224;2023-02-28T03:54:14;4.57;;;4.13;;
16159;SDS011;8185;57.818;15.224;2023-02-28T03:56:45;6.20;;;4.80;;
16159;SDS011;8185;57.818;15.224;2023-02-28T03:59:16;5.20;;;4.70;;
16159;SDS011;8185;57.818;15.224;2023-02-28T04:01:48;5.20;;;4.67;;
16159;SDS011;8185;57.818;15.224;2023-02-28T04:04:17;6.43;;;5.70;;
16159;SDS011;8185;57.818;15.224;2023-02-28T04:06:45;1.83;;;1.53;;
16159;SDS011;8185;57.818;15.224;2023-02-28T04:09:17;1.47;;;1.37;;
16159;SDS011;8185;57.818;15.224;2023-02-28T04:11:44;2.30;;;1.50;;
16159;SDS011;8185;57.818;15.224;2023-02-28T04:14:16;1.50;;;1.20;;
16159;SDS011;8185;57.818;15.224;2023-02-28T04:16:44;1.40;;;1.30;;
16159;SDS011;8185;57.818;15.224;2023-02-28T04:19:12;1.47;;;1.37;;
16159;SDS011;8185;57.818;15.224;2023-02-28T04:21:40;2.23;;;1.70;;
16159;SDS011;8185;57.818;15.224;2023-02-28T04:24:11;2.07;;;1.10;;
16159;SDS011;8185;57.818;15.224;2023-02-28T04:26:40;1.53;;;1.27;;
16159;SDS011;8185;57.818;15.224;2023-02-28T04:29:09;1.90;;;1.60;;
16159;SDS011;8185;57.818;15.224;2023-02-28T04:31:38;1.90;;;1.70;;
16159;SDS011;8185;57.818;15.224;2023-02-28T04:34:06;1.97;;;1.60;;
16159;SDS011;8185;57.818;15.224;2023-02-28T04:36:33;1.37;;;1.27;;
16159;SDS011;8185;57.818;15.224;2023-02-28T04:39:00;2.43;;;1.67;;
16159;SDS011;8185;57.818;15.224;2023-02-28T04:41:30;2.00;;;1.40;;
16159;SDS011;8185;57.818;15.224;2023-02-28T04:43:57;2.67;;;1.53;;
16159;SDS011;8185;57.818;15.224;2023-02-28T04:46:24;1.77;;;1.60;;
16159;SDS011;8185;57.818;15.224;2023-02-28T04:48:51;2.63;;;1.70;;
16159;SDS011;8185;57.818;15.224;2023-02-28T04:51:19;3.00;;;1.57;;
16159;SDS011;8185;57.818;15.224;2023-02-28T04:53:47;1.73;;;1.60;;
16159;SDS011;8185;57.818;15.224;2023-02-28T04:56:15;2.10;;;1.80;;
16159;SDS011;8185;57.818;15.224;2023-02-28T04:58:45;3.10;;;1.90;;
16159;SDS011;8185;57.818;15.224;2023-02-28T05:01:16;2.17;;;1.50;;
16159;SDS011;8185;57.818;15.224;2023-02-28T05:03:46;1.40;;;1.30;;
16159;SDS011;8185;57.818;15.224;2023-02-28T05:06:14;2.33;;;1.50;;
16159;SDS011;8185;57.818;15.224;2023-02-28T05:08:42;1.77;;;1.50;;
16159;SDS011;8185;57.818;15.224;2023-02-28T05:11:12;1.93;;;1.57;;
16159;SDS011;8185;57.818;15.224;2023-02-28T05:13:42;1.70;;;1.40;;
16159;SDS011;8185;57.818;15.224;2023-02-28T05:16:11;1.57;;;1.10;;
16159;SDS011;8185;57.818;15.224;2023-02-28T05:18:39;1.97;;;1.30;;
16159;SDS011;8185;57.818;15.224;2023-02-28T05:21:06;2.77;;;1.40;;
16159;SDS011;8185;57.818;15.224;2023-02-28T05:23:48;2.53;;;1.60;;
16159;SDS011;8185;57.818;15.224;2023-02-28T05:26:16;1.67;;;1.27;;
16159;SDS011;8185;57.818;15.224;2023-02-28T05:28:44;1.93;;;1.23;;
16159;SDS011;8185;57.818;15.224;2023-02-28T05:31:11;1.27;;;1.17;;
16159;SDS011;8185;57.818;15.224;2023-02-28T05:33:39;2.17;;;1.30;;
16159;SDS011;8185;57.818;15.224;2023-02-28T05:36:07;1.63;;;1.40;;
16159;SDS011;8185;57.818;15.224;2023-02-28T05:38:34;1.60;;;1.40;;
16159;SDS011;8185;57.818;15.224;2023-02-28T05:41:04;1.50;;;1.40;;
16159;SDS011;8185;57.818;15.224;2023-02-28T05:43:33;1.53;;;1.23;;
16159;SDS011;8185;57.818;15.224;2023-02-28T05:46:03;1.23;;;1.00;;
16159;SDS011;8185;57.818;15.224;2023-02-28T05:48:32;1.20;;;1.07;;
16159;SDS011;8185;57.818;15.224;2023-02-28T05:50:59;1.73;;;1.10;;
16159;SDS011;8185;57.818;15.224;2023-02-28T05:53:27;2.90;;;1.50;;
16159;SDS011;8185;57.818;15.224;2023-02-28T05:55:55;1.10;;;1.00;;
16159;SDS011;8185;57.818;15.224;2023-02-28T05:58:23;1.77;;;1.27;;
16159;SDS011;8185;57.818;15.224;2023-02-28T06:00:50;2.70;;;1.17;;
16159;SDS011;8185;57.818;15.224;2023-02-28T06:03:19;1.33;;;1.00;;
16159;SDS011;8185;57.818;15.224;2023-02-28T06:05:46;1.10;;;1.00;;
16159;SDS011;8185;57.818;15.224;2023-02-28T06:08:13;2.87;;;1.10;;
16159;SDS011;8185;57.818;15.224;2023-02-28T06:10:40;2.50;;;1.00;;
16159;SDS011;8185;57.818;15.224;2023-02-28T06:13:08;1.90;;;1.13;;
16159;SDS011;8185;57.818;15.224;2023-02-28T06:15:35;1.13;;;1.03;;
16159;SDS011;8185;57.818;15.224;2023-02-28T06:18:02;1.30;;;1.20;;
16159;SDS011;8185;57.818;15.224;2023-02-28T06:20:31;1.00;;;1.00;;
16159;SDS011;8185;57.818;15.224;2023-02-28T06:22:58;1.10;;;1.00;;
16159;SDS011;8185;57.818;15.224;2023-02-28T06:25:26;0.90;;;0.90;;
16159;SDS011;8185;57.818;15.224;2023-02-28T06:27:54;1.77;;;1.23;;
16159;SDS011;8185;57.818;15.224;2023-02-28T06:30:21;1.37;;;1.07;;
16159;SDS011;8185;57.818;15.224;2023-02-28T06:32:52;1.30;;;0.93;;
16159;SDS011;8185;57.818;15.224;2023-02-28T06:35:19;1.30;;;1.20;;
16159;SDS011;8185;57.818;15.224;2023-02-28T06:37:48;2.20;;;1.97;;
16159;SDS011;8185;57.818;15.224;2023-02-28T06:40:15;1.50;;;1.30;;
16159;SDS011;8185;57.818;15.224;2023-02-28T06:42:42;2.03;;;1.70;;
16159;SDS011;8185;57.818;15.224;2023-02-28T06:45:10;1.60;;;1.50;;
16159;SDS011;8185;57.818;15.224;2023-02-28T06:47:38;1.40;;;1.30;;
16159;SDS011;8185;57.818;15.224;2023-02-28T06:50:07;4.03;;;2.83;;
16159;SDS011;8185;57.818;15.224;2023-02-28T06:52:36;4.83;;;4.43;;
16159;SDS011;8185;57.818;15.224;2023-02-28T06:55:06;3.83;;;3.10;;
16159;SDS011;8185;57.818;15.224;2023-02-28T06:57:34;4.17;;;3.13;;
16159;SDS011;8185;57.818;15.224;2023-02-28T07:00:03;3.00;;;2.60;;
16159;SDS011;8185;57.818;15.224;2023-02-28T07:02:33;2.03;;;1.70;;
16159;SDS011;8185;57.818;15.224;2023-02-28T07:05:00;1.10;;;0.93;;
16159;SDS011;8185;57.818;15.224;2023-02-28T07:07:28;3.33;;;1.00;;
16159;SDS011;8185;57.818;15.224;2023-02-28T07:09:55;2.63;;;1.00;;
16159;SDS011;8185;57.818;15.224;2023-02-28T07:12:24;1.17;;;0.70;;
16159;SDS011;8185;57.818;15.224;2023-02-28T07:14:51;0.70;;;0.70;;
16159;SDS011;8185;57.818;15.224;2023-02-28T07:17:19;0.60;;;0.60;;
16159;SDS011;8185;57.818;15.224;2023-02-28T07:19:46;1.53;;;1.30;;
16159;SDS011;8185;57.818;15.224;2023-02-28T07:22:14;2.17;;;1.50;;
16159;SDS011;8185;57.818;15.224;2023-02-28T07:24:41;3.73;;;0.93;;
16159;SDS011;8185;57.818;15.224;2023-02-28T07:27:08;2.03;;;1.00;;
16159;SDS011;8185;57.818;15.224;2023-02-28T07:29:37;1.20;;;0.90;;
16159;SDS011;8185;57.818;15.224;2023-02-28T07:32:04;2.50;;;1.20;;
16159;SDS011;8185;57.818;15.224;2023-02-28T07:34:31;1.27;;;0.70;;
16159;SDS011;8185;57.818;15.224;2023-02-28T07:36:59;0.90;;;0.77;;
16159;SDS011;8185;57.818;15.224;2023-02-28T07:39:28;0.97;;;0.87;;
16159;SDS011;8185;57.818;15.224;2023-02-28T07:41:56;2.10;;;0.80;;
16159;SDS011;8185;57.818;15.224;2023-02-28T07:44:24;0.83;;;0.60;;
16159;SDS011;8185;57.818;15.224;2023-02-28T07:46:53;0.67;;;0.67;;
16159;SDS011;8185;57.818;15.224;2023-02-28T07:49:20;1.00;;;0.87;;
16159;SDS011;8185;57.818;15.224;2023-02-28T07:51:47;2.10;;;1.90;;
16159;SDS011;8185;57.818;15.224;2023-02-28T07:54:15;2.50;;;2.30;;
16159;SDS011;8185;57.818;15.224;2023-02-28T07:56:42;2.83;;;2.23;;
16159;SDS011;8185;57.818;15.224;2023-02-28T07:59:09;1.50;;;1.33;;
16159;SDS011;8185;57.818;15.224;2023-02-28T08:01:36;3.90;;;2.00;;
16159;SDS011;8185;57.818;15.224;2023-02-28T08:04:05;2.70;;;2.43;;
16159;SDS011;8185;57.818;15.224;2023-02-28T08:06:32;1.70;;;1.30;;
16159;SDS011;8185;57.818;15.224;2023-02-28T08:08:59;4.20;;;2.57;;
16159;SDS011;8185;57.818;15.224;2023-02-28T08:11:26;2.50;;;1.83;;
16159;SDS011;8185;57.818;15.224;2023-02-28T08:13:54;1.37;;;1.27;;
16159;SDS011;8185;57.818;15.224;2023-02-28T08:16:21;2.73;;;1.50;;
16159;SDS011;8185;57.818;15.224;2023-02-28T08:18:49;0.83;;;0.80;;
16159;SDS011;8185;57.818;15.224;2023-02-28T08:21:18;1.40;;;0.93;;
16159;SDS011;8185;57.818;15.224;2023-02-28T08:23:46;0.83;;;0.83;;
16159;SDS011;8185;57.818;15.224;2023-02-28T08:26:14;1.03;;;0.80;;
16159;SDS011;8185;57.818;15.224;2023-02-28T08:28:41;2.33;;;0.80;;
16159;SDS011;8185;57.818;15.224;2023-02-28T08:31:09;0.83;;;0.70;;
16159;SDS011;8185;57.818;15.224;2023-02-28T08:33:38;1.10;;;0.70;;
16159;SDS011;8185;57.818;15.224;2023-02-28T08:36:06;0.63;;;0.47;;
16159;SDS011;8185;57.818;15.224;2023-02-28T08:38:36;1.07;;;0.63;;
16159;SDS011;8185;57.818;15.224;2023-02-28T08:41:05;0.87;;;0.60;;
16159;SDS011;8185;57.818;15.224;2023-02-28T08:43:34;0.50;;;0.43;;
16159;SDS011;8185;57.818;15.224;2023-02-28T08:46:02;0.60;;;0.60;;
16159;SDS011;8185;57.818;15.224;2023-02-28T08:48:30;0.93;;;0.70;;
16159;SDS011;8185;57.818;15.224;2023-02-28T08:50:58;0.73;;;0.60;;
16159;SDS011;8185;57.818;15.224;2023-02-28T08:53:27;0.50;;;0.40;;
16159;SDS011;8185;57.818;15.224;2023-02-28T08:55:59;0.70;;;0.50;;
16159;SDS011;8185;57.818;15.224;2023-02-28T08:58:28;1.23;;;0.67;;
16159;SDS011;8185;57.818;15.224;2023-02-28T09:00:55;0.63;;;0.50;;
16159;SDS011;8185;57.818;15.224;2023-02-28T09:03:23;0.90;;;0.50;;
16159;SDS011;8185;57.818;15.224;2023-02-28T09:05:53;0.47;;;0.47;;
16159;SDS011;8185;57.818;15.224;2023-02-28T09:08:21;1.33;;;1.23;;
16159;SDS011;8185;57.818;15.224;2023-02-28T09:10:49;0.80;;;0.60;;
16159;SDS011;8185;57.818;15.224;2023-02-28T09:13:18;0.50;;;0.40;;
16159;SDS011;8185;57.818;15.224;2023-02-28T09:15:45;1.03;;;0.60;;
16159;SDS011;8185;57.818;15.224;2023-02-28T09:18:13;0.60;;;0.50;;
16159;SDS011;8185;57.818;15.224;2023-02-28T09:20:40;0.47;;;0.40;;
16159;SDS011;8185;57.818;15.224;2023-02-28T09:23:09;1.37;;;0.53;;
16159;SDS011;8185;57.818;15.224;2023-02-28T09:25:38;0.80;;;0.50;;
16159;SDS011;8185;57.818;15.224;2023-02-28T09:28:12;0.50;;;0.40;;
16159;SDS011;8185;57.818;15.224;2023-02-28T09:30:43;0.80;;;0.60;;
16159;SDS011;8185;57.818;15.224;2023-02-28T09:33:11;0.50;;;0.50;;
16159;SDS011;8185;57.818;15.224;2023-02-28T09:35:38;0.47;;;0.40;;
16159;SDS011;8185;57.818;15.224;2023-02-28T09:38:06;0.43;;;0.43;;
16159;SDS011;8185;57.818;15.224;2023-02-28T09:40:35;0.83;;;0.40;;
16159;SDS011;8185;57.818;15.224;2023-02-28T09:43:05;1.67;;;0.40;;
16159;SDS011;8185;57.818;15.224;2023-02-28T09:45:37;0.70;;;0.43;;
16159;SDS011;8185;57.818;15.224;2023-02-28T09:48:11;0.50;;;0.40;;
16159;SDS011;8185;57.818;15.224;2023-02-28T09:50:45;1.23;;;0.80;;
16159;SDS011;8185;57.818;15.224;2023-02-28T09:53:18;0.40;;;0.40;;
16159;SDS011;8185;57.818;15.224;2023-02-28T09:55:49;0.90;;;0.57;;
16159;SDS011;8185;57.818;15.224;2023-02-28T09:58:20;0.87;;;0.43;;
16159;SDS011;8185;57.818;15.224;2023-02-28T10:00:56;0.50;;;0.40;;
16159;SDS011;8185;57.818;15.224;2023-02-28T10:03:31;0.73;;;0.40;;
16159;SDS011;8185;57.818;15.224;2023-02-28T10:06:07;0.50;;;0.40;;
16159;SDS011;8185;57.818;15.224;2023-02-28T10:08:40;0.50;;;0.40;;
16159;SDS011;8185;57.818;15.224;2023-02-28T10:11:17;0.30;;;0.30;;
16159;SDS011;8185;57.818;15.224;2023-02-28T10:13:48;0.60;;;0.40;;
16159;SDS011;8185;57.818;15.224;2023-02-28T10:16:22;0.50;;;0.40;;
16159;SDS011;8185;57.818;15.224;2023-02-28T10:18:57;0.30;;;0.30;;
16159;SDS011;8185;57.818;15.224;2023-02-28T10:21:30;0.70;;;0.40;;
16159;SDS011;8185;57.818;15.224;2023-02-28T10:24:03;0.50;;;0.33;;
16159;SDS011;8185;57.818;15.224;2023-02-28T10:26:47;0.30;;;0.20;;
16159;SDS011;8185;57.818;15.224;2023-02-28T10:29:15;0.30;;;0.20;;
16159;SDS011;8185;57.818;15.224;2023-02-28T10:31:42;0.47;;;0.20;;
16159;SDS011;8185;57.818;15.224;2023-02-28T10:34:12;0.27;;;0.20;;
16159;SDS011;8185;57.818;15.224;2023-02-28T10:36:40;0.70;;;0.27;;
16159;SDS011;8185;57.818;15.224;2023-02-28T10:39:33;0.50;;;0.20;;
16159;SDS011;8185;57.818;15.224;2023-02-28T10:42:03;1.37;;;0.30;;
16159;SDS011;8185;57.818;15.224;2023-02-28T10:44:30;0.50;;;0.30;;
16159;SDS011;8185;57.818;15.224;2023-02-28T10:46:58;1.20;;;0.50;;
16159;SDS011;8185;57.818;15.224;2023-02-28T10:49:27;0.70;;;0.40;;
16159;SDS011;8185;57.818;15.224;2023-02-28T10:51:56;0.50;;;0.30;;
16159;SDS011;8185;57.818;15.224;2023-02-28T10:54:26;0.37;;;0.30;;
16159;SDS011;8185;57.818;15.224;2023-02-28T10:57:06;0.70;;;0.33;;
16159;SDS011;8185;57.818;15.224;2023-02-28T10:59:40;0.63;;;0.27;;
16159;SDS011;8185;57.818;15.224;2023-02-28T11:04:59;0.20;;;0.20;;
16159;SDS011;8185;57.818;15.224;2023-02-28T11:07:27;0.30;;;0.20;;
16159;SDS011;8185;57.818;15.224;2023-02-28T11:09:55;0.50;;;0.30;;
16159;SDS011;8185;57.818;15.224;2023-02-28T11:12:25;0.43;;;0.23;;
16159;SDS011;8185;57.818;15.224;2023-02-28T11:14:56;1.40;;;0.57;;
16159;SDS011;8185;57.818;15.224;2023-02-28T11:17:27;0.23;;;0.13;;
16159;SDS011;8185;57.818;15.224;2023-02-28T11:19:57;0.43;;;0.20;;
16159;SDS011;8185;57.818;15.224;2023-02-28T11:22:29;0.60;;;0.30;;
16159;SDS011;8185;57.818;15.224;2023-02-28T11:25:01;0.60;;;0.30;;
16159;SDS011;8185;57.818;15.224;2023-02-28T11:27:45;0.60;;;0.50;;
16159;SDS011;8185;57.818;15.224;2023-02-28T11:33:00;0.30;;;0.23;;
16159;SDS011;8185;57.818;15.224;2023-02-28T11:35:43;0.40;;;0.30;;
16159;SDS011;8185;57.818;15.224;2023-02-28T11:38:11;0.60;;;0.30;;
16159;SDS011;8185;57.818;15.224;2023-02-28T11:40:50;0.40;;;0.30;;
16159;SDS011;8185;57.818;15.224;2023-02-28T11:43:35;0.43;;;0.30;;
16159;SDS011;8185;57.818;15.224;2023-02-28T11:46:18;0.40;;;0.37;;
16159;SDS011;8185;57.818;15.224;2023-02-28T11:48:55;0.40;;;0.40;;
16159;SDS011;8185;57.818;15.224;2023-02-28T11:51:31;0.50;;;0.33;;
16159;SDS011;8185;57.818;15.224;2023-02-28T11:54:16;0.37;;;0.33;;
16159;SDS011;8185;57.818;15.224;2023-02-28T11:56:54;0.47;;;0.30;;
16159;SDS011;8185;57.818;15.224;2023-02-28T11:59:32;0.53;;;0.40;;
16159;SDS011;8185;57.818;15.224;2023-02-28T12:02:10;0.50;;;0.40;;
16159;SDS011;8185;57.818;15.224;2023-02-28T12:04:52;0.40;;;0.30;;
16159;SDS011;8185;57.818;15.224;2023-02-28T12:07:42;0.70;;;0.70;;
16159;SDS011;8185;57.818;15.224;2023-02-28T12:10:22;0.40;;;0.30;;
16159;SDS011;8185;57.818;15.224;2023-02-28T12:12:55;1.37;;;1.27;;
16159;SDS011;8185;57.818;15.224;2023-02-28T12:18:33;0.40;;;0.30;;
16159;SDS011;8185;57.818;15.224;2023-02-28T12:21:27;0.67;;;0.37;;
16159;SDS011;8185;57.818;15.224;2023-02-28T12:26:58;0.30;;;0.20;;
16159;SDS011;8185;57.818;15.224;2023-02-28T12:29:29;0.40;;;0.30;;
16159;SDS011;8185;57.818;15.224;2023-02-28T12:32:03;0.30;;;0.30;;
16159;SDS011;8185;57.818;15.224;2023-02-28T12:34:35;0.40;;;0.30;;
16159;SDS011;8185;57.818;15.224;2023-02-28T12:37:06;0.53;;;0.30;;
16159;SDS011;8185;57.818;15.224;2023-02-28T12:39:39;0.40;;;0.30;;
16159;SDS011;8185;57.818;15.224;2023-02-28T12:42:11;0.30;;;0.20;;
16159;SDS011;8185;57.818;15.224;2023-02-28T12:44:46;1.03;;;0.40;;
16159;SDS011;8185;57.818;15.224;2023-02-28T12:47:18;1.33;;;0.30;;
16159;SDS011;8185;57.818;15.224;2023-02-28T12:49:45;0.20;;;0.20;;
16159;SDS011;8185;57.818;15.224;2023-02-28T12:52:17;0.50;;;0.33;;
16159;SDS011;8185;57.818;15.224;2023-02-28T12:54:51;0.27;;;0.20;;
16159;SDS011;8185;57.818;15.224;2023-02-28T12:57:25;0.30;;;0.30;;
16159;SDS011;8185;57.818;15.224;2023-02-28T13:00:00;0.20;;;0.20;;
16159;SDS011;8185;57.818;15.224;2023-02-28T13:05:42;0.23;;;0.23;;
16159;SDS011;8185;57.818;15.224;2023-02-28T13:08:54;0.60;;;0.27;;
16159;SDS011;8185;57.818;15.224;2023-02-28T13:11:29;0.60;;;0.37;;
16159;SDS011;8185;57.818;15.224;2023-02-28T13:14:00;0.47;;;0.20;;
16159;SDS011;8185;57.818;15.224;2023-02-28T13:19:19;0.40;;;0.30;;
16159;SDS011;8185;57.818;15.224;2023-02-28T13:21:49;0.30;;;0.20;;
16159;SDS011;8185;57.818;15.224;2023-02-28T13:24:37;0.20;;;0.20;;
16159;SDS011;8185;57.818;15.224;2023-02-28T13:33:23;0.30;;;0.20;;
16159;SDS011;8185;57.818;15.224;2023-02-28T13:36:09;0.40;;;0.30;;
16159;SDS011;8185;57.818;15.224;2023-02-28T13:38:51;0.20;;;0.20;;
16159;SDS011;8185;57.818;15.224;2023-02-28T13:44:12;0.30;;;0.20;;
16159;SDS011;8185;57.818;15.224;2023-02-28T13:49:45;0.20;;;0.20;;
16159;SDS011;8185;57.818;15.224;2023-02-28T13:52:15;0.30;;;0.20;;
16159;SDS011;8185;57.818;15.224;2023-02-28T13:54:54;0.40;;;0.30;;
16159;SDS011;8185;57.818;15.224;2023-02-28T13:57:41;1.03;;;0.50;;
16159;SDS011;8185;57.818;15.224;2023-02-28T14:00:20;0.57;;;0.20;;
16159;SDS011;8185;57.818;15.224;2023-02-28T14:08:44;0.40;;;0.23;;
16159;SDS011;8185;57.818;15.224;2023-02-28T14:11:27;0.30;;;0.20;;
16159;SDS011;8185;57.818;15.224;2023-02-28T14:13:56;0.60;;;0.30;;
16159;SDS011;8185;57.818;15.224;2023-02-28T14:16:25;0.30;;;0.20;;
16159;SDS011;8185;57.818;15.224;2023-02-28T14:19:02;0.60;;;0.30;;
16159;SDS011;8185;57.818;15.224;2023-02-28T14:21:37;0.20;;;0.20;;
16159;SDS011;8185;57.818;15.224;2023-02-28T14:27:12;0.40;;;0.20;;
16159;SDS011;8185;57.818;15.224;2023-02-28T14:30:11;0.20;;;0.20;;
16159;SDS011;8185;57.818;15.224;2023-02-28T14:33:04;0.50;;;0.37;;
16159;SDS011;8185;57.818;15.224;2023-02-28T14:38:36;0.30;;;0.30;;
16159;SDS011;8185;57.818;15.224;2023-02-28T14:41:14;0.30;;;0.30;;
16159;SDS011;8185;57.818;15.224;2023-02-28T14:43:50;0.73;;;0.20;;
16159;SDS011;8185;57.818;15.224;2023-02-28T14:46:20;1.30;;;0.40;;
16159;SDS011;8185;57.818;15.224;2023-02-28T14:48:51;0.30;;;0.20;;
16159;SDS011;8185;57.818;15.224;2023-02-28T14:51:19;0.33;;;0.33;;
16159;SDS011;8185;57.818;15.224;2023-02-28T14:53:48;0.43;;;0.30;;
16159;SDS011;8185;57.818;15.224;2023-02-28T14:56:19;0.30;;;0.20;;
16159;SDS011;8185;57.818;15.224;2023-02-28T14:58:53;0.20;;;0.20;;
16159;SDS011;8185;57.818;15.224;2023-02-28T15:01:21;0.50;;;0.30;;
16159;SDS011;8185;57.818;15.224;2023-02-28T15:03:59;0.30;;;0.20;;
16159;SDS011;8185;57.818;15.224;2023-02-28T15:06:29;0.53;;;0.27;;
16159;SDS011;8185;57.818;15.224;2023-02-28T15:11:45;0.30;;;0.20;;
16159;SDS011;8185;57.818;15.224;2023-02-28T15:14:15;0.20;;;0.20;;
16159;SDS011;8185;57.818;15.224;2023-02-28T15:16:46;0.30;;;0.20;;
16159;SDS011;8185;57.818;15.224;2023-02-28T15:19:20;0.37;;;0.27;;
16159;SDS011;8185;57.818;15.224;2023-02-28T15:21:51;0.30;;;0.30;;
16159;SDS011;8185;57.818;15.224;2023-02-28T15:24:24;0.67;;;0.20;;
16159;SDS011;8185;57.818;15.224;2023-02-28T15:26:58;0.40;;;0.30;;
16159;SDS011;8185;57.818;15.224;2023-02-28T15:29:27;0.30;;;0.20;;
16159;SDS011;8185;57.818;15.224;2023-02-28T15:31:56;0.33;;;0.30;;
16159;SDS011;8185;57.818;15.224;2023-02-28T15:34:33;0.40;;;0.30;;
16159;SDS011;8185;57.818;15.224;2023-02-28T15:37:06;0.37;;;0.37;;
16159;SDS011;8185;57.818;15.224;2023-02-28T15:39:50;0.30;;;0.23;;
16159;SDS011;8185;57.818;15.224;2023-02-28T15:42:18;0.30;;;0.20;;
16159;SDS011;8185;57.818;15.224;2023-02-28T15:44:47;0.30;;;0.30;;
16159;SDS011;8185;57.818;15.224;2023-02-28T15:47:16;0.63;;;0.33;;
16159;SDS011;8185;57.818;15.224;2023-02-28T15:49:47;0.57;;;0.30;;
16159;SDS011;8185;57.818;15.224;2023-02-28T15:52:18;0.40;;;0.30;;
16159;SDS011;8185;57.818;15.224;2023-02-28T15:54:49;1.33;;;0.50;;
16159;SDS011;8185;57.818;15.224;2023-02-28T15:57:17;0.40;;;0.23;;
16159;SDS011;8185;57.818;15.224;2023-02-28T15:59:49;0.20;;;0.20;;
16159;SDS011;8185;57.818;15.224;2023-02-28T16:02:19;0.20;;;0.20;;